Aeroporto :
LOGIN :

Iscrizione | Disclaimer

   EN    FR    IT 

 










Sommario :    VFR   VFR Marginale   IFR   IFR Intensivo   IFR Molto Intensivo
Visibilità : 
Base nubi : 
>= 8 km
>= 3000ft
5 / 8 km
1000 / 3000 ft
1500m / 5 km
500 / 1000 ft
800 / 1500m
200 / 500 ft
< 800m
< 200 ft
Simboli :   Temporali  Nebbia  Neve Forte  Precipitazioni Forti  Vento > 20 kt
SIGMETs :   Varie  Temporali  Ghiacco  Turbolenza  Onda orograficha  Ceneri Vulcaniche







- Altitudine del aeroporto : 776 ft
- Codice IATA : RMS


ETAR - Ramstein Air Base

ULTIMO METAR :
  • 221156Z AUTO 07011KT 9999 CLR 18/M02 A3038 RMK AO2 SLP296 T01781025 10178 21015 57016 $

METARs OBSOLETI :
  • 221056Z AUTO 01006KT 9999 CLR 17/M02 A3039 RMK AO2 SLP300 T01651021 $
  • 220956Z AUTO 05006KT 9999 CLR 14/00 A3041 RMK AO2 SLP308 T01440003 $

TAF TAF ETAR
Valido dal 22 a 10 ore il 23 a 16 ore UTC


221002Z 2210/2316 08006KT 9999 SCT200 QNH3033INS
BECMG 2215/2216 VRB06KT 9999 FEW030 SCT200 QNH3031INS TX17/2216Z TN00/2306Z
Nessun NOTAM noto per questo aeroporto.



MetMap, La meteo Aeronautica in un colpo d'occhio ! - Copyright ORBIFLY Dicembre 2007 - Disclaimer

ORBIFLY MET'MAP TEAM :

Programmazione e sviluppo : Alexandra Zaïnal
Concezione e sviluppo : Baudouin d'Aumeries
Co-Programmazione e sviluppo : Marc-Olivier Méhu
Supporto tecnico e logistico : Manuel Goepfert
Aiuto per la traduzione : Arnaldo La Scala

Contatto : metmap@orbifly.com




FONTI E CREDITI :

   NOAA